Terminal Aerodrome Forecast
Issued by NWS

Home | Current Version | Previous Version | Graphics & Text | Print | Product List | Glossary On
Versions: 1 2 3 4 5 6 7 8 9 10 11 12
000
FTUS45 KGGW 160520
TAFOLF
TAF
KOLF 160520Z 1606/1706 08010KT P6SM BKN200 WS020/15035KT
     FM161000 08010KT P6SM BKN150
     FM161800 VRB06KT P6SM BKN110
     FM162000 22007KT P6SM SCT130=

USA.gov is the U.S. government's official web portal to all federal, state and local government web resources and services.